Time,TemperatureF,DewpointF,PressureIn,WindDirection,WindDirectionDegrees,WindSpeedMPH,WindSpeedGustMPH,Humidity,HourlyPrecipIn,Conditions,Clouds,dailyrainin,SoftwareType,DateUTC
2013-02-18 00:00:00,14.8,-0.5,29.45,North,359,9.4,14.0,50,0.00,CLR,,0.00,WeatherDisplay:10.37,2013-02-18 05:00:00,
2013-02-18 00:05:00,14.6,-0.7,29.45,WNW,282,4.9,6.9,50,0.00,CLR,,0.00,WeatherDisplay:10.37,2013-02-18 05:05:00,
2013-02-18 00:10:00,14.4,-0.5,29.45,NW,308,4.4,12.0,51,0.00,CLR,,0.00,WeatherDisplay:10.37,2013-02-18 05:10:00,
2013-02-18 00:15:00,14.4,-0.9,29.45,WNW,292,2.5,4.6,50,0.00,CLR,,0.00,WeatherDisplay:10.37,2013-02-18 05:15:00,
2013-02-18 00:20:00,14.3,-0.6,29.46,NW,315,3.4,6.9,51,0.00,CLR,,0.00,WeatherDisplay:10.37,2013-02-18 05:20:00,
2013-02-18 00:25:00,14.1,-0.7,29.46,North,1,3.7,21.0,51,0.00,CLR,,0.00,WeatherDisplay:10.37,2013-02-18 05:25:00,
2013-02-18 00:30:00,14.1,-0.7,29.45,WNW,295,2.2,11.5,51,0.00,CLR,,0.00,WeatherDisplay:10.37,2013-02-18 05:30:00,
2013-02-18 00:35:00,14.0,-0.4,29.46,North,354,8.1,20.7,52,0.00,CLR,,0.00,WeatherDisplay:10.37,2013-02-18 05:35:00,
2013-02-18 00:40:00,13.8,-0.6,29.46,NNW,335,2.7,8.1,52,0.00,CLR,,0.00,WeatherDisplay:10.37,2013-02-18 05:40:00,
2013-02-18 00:45:00,13.8,-0.6,29.46,NW,322,3.1,3.5,52,0.00,CLR,,0.00,WeatherDisplay:10.37,2013-02-18 05:45:00,
2013-02-18 00:50:00,13.8,-1.0,29.46,NNW,342,5.0,11.5,51,0.00,CLR,,0.00,WeatherDisplay:10.37,2013-02-18 05:50:00,
2013-02-18 00:55:00,13.6,-0.8,29.46,NW,312,7.4,7.4,52,0.00,CLR,,0.00,WeatherDisplay:10.37,2013-02-18 05:55:00,
2013-02-18 01:00:00,13.6,-1.2,29.46,WNW,295,2.6,10.4,51,0.00,CLR,,0.00,WeatherDisplay:10.37,2013-02-18 06:00:00,
2013-02-18 01:05:00,13.6,-1.2,29.47,NNW,340,2.0,5.8,51,0.00,CLR,,0.00,WeatherDisplay:10.37,2013-02-18 06:05:00,
2013-02-18 01:10:00,13.6,-0.8,29.47,NW,312,7.8,10.4,52,0.00,CLR,,0.00,WeatherDisplay:10.37,2013-02-18 06:10:00,
2013-02-18 01:15:00,13.6,-0.8,29.47,NNW,347,3.5,12.7,52,0.00,CLR,,0.00,WeatherDisplay:10.37,2013-02-18 06:15:00,
2013-02-18 01:20:00,13.5,-0.9,29.47,NW,312,4.0,10.4,52,0.00,CLR,,0.00,WeatherDisplay:10.37,2013-02-18 06:20:00,
2013-02-18 01:25:00,13.5,-1.3,29.48,NNW,328,9.3,17.3,51,0.00,CLR,,0.00,WeatherDisplay:10.37,2013-02-18 06:25:00,
2013-02-18 01:30:00,13.6,-1.2,29.48,WNW,288,5.6,11.5,51,0.00,CLR,,0.00,WeatherDisplay:10.37,2013-02-18 06:30:00,
2013-02-18 01:35:00,13.6,-1.2,29.48,NW,326,5.9,7.0,51,0.00,CLR,,0.00,WeatherDisplay:10.37,2013-02-18 06:35:00,
2013-02-18 01:40:00,13.5,-1.3,29.48,NNW,346,3.5,13.8,51,0.00,CLR,,0.00,WeatherDisplay:10.37,2013-02-18 06:40:00,
2013-02-18 01:45:00,13.5,-1.3,29.48,WNW,299,8.7,11.5,51,0.00,CLR,,0.00,WeatherDisplay:10.37,2013-02-18 06:45:00,
2013-02-18 01:50:00,13.5,-0.9,29.48,WNW,296,4.8,10.0,52,0.00,CLR,,0.00,WeatherDisplay:10.37,2013-02-18 06:50:00,
2013-02-18 01:55:00,13.3,-1.5,29.48,WNW,291,6.0,10.4,51,0.00,CLR,,0.00,WeatherDisplay:10.37,2013-02-18 06:55:00,
2013-02-18 02:00:00,13.3,-1.1,29.49,North,7,6.2,11.5,52,0.00,CLR,,0.00,WeatherDisplay:10.37,2013-02-18 07:00:00,
2013-02-18 02:05:00,13.1,-1.3,29.49,NW,305,4.2,6.9,52,0.00,CLR,,0.00,WeatherDisplay:10.37,2013-02-18 07:05:00,
2013-02-18 02:10:00,13.1,-1.7,29.49,NW,326,8.8,16.1,51,0.00,CLR,,0.00,WeatherDisplay:10.37,2013-02-18 07:10:00,
2013-02-18 02:15:00,12.9,-1.4,29.49,NNW,329,4.3,10.4,52,0.00,CLR,,0.00,WeatherDisplay:10.37,2013-02-18 07:15:00,
2013-02-18 02:20:00,12.9,-1.4,29.49,NNW,336,7.6,13.8,52,0.00,CLR,,0.00,WeatherDisplay:10.37,2013-02-18 07:20:00,
2013-02-18 02:25:00,12.9,-1.9,29.50,South,184,7.2,10.4,51,0.00,CLR,,0.00,WeatherDisplay:10.37,2013-02-18 07:25:00,
2013-02-18 02:30:00,12.9,-1.4,29.50,WNW,299,5.1,11.5,52,0.00,CLR,,0.00,WeatherDisplay:10.37,2013-02-18 07:30:00,
2013-02-18 02:35:00,12.9,-1.4,29.50,North,353,4.4,11.5,52,0.00,CLR,,0.00,WeatherDisplay:10.37,2013-02-18 07:35:00,
2013-02-18 02:40:00,12.8,-1.5,29.50,West,274,3.6,6.9,52,0.00,CLR,,0.00,WeatherDisplay:10.37,2013-02-18 07:40:00,
2013-02-18 02:45:00,12.8,-1.1,29.51,NNW,343,7.2,17.3,53,0.00,CLR,,0.00,WeatherDisplay:10.37,2013-02-18 07:45:00,
2013-02-18 02:50:00,12.8,-1.5,29.51,NNW,342,6.9,12.0,52,0.00,CLR,,0.00,WeatherDisplay:10.37,2013-02-18 07:50:00,
2013-02-18 02:55:00,12.8,-1.5,29.51,NW,318,9.9,13.8,52,0.00,CLR,,0.00,WeatherDisplay:10.37,2013-02-18 07:55:00,
2013-02-18 03:00:00,12.9,-1.4,29.51,North,357,6.5,14.0,52,0.00,CLR,,0.00,WeatherDisplay:10.37,2013-02-18 08:00:00,
2013-02-18 03:05:00,12.9,-1.4,29.51,NNW,335,3.8,10.4,52,0.00,CLR,,0.00,WeatherDisplay:10.37,2013-02-18 08:05:00,
2013-02-18 03:10:00,12.9,-1.9,29.51,NNW,330,6.2,20.7,51,0.00,CLR,,0.00,WeatherDisplay:10.37,2013-02-18 08:10:00,
2013-02-18 03:15:00,12.9,-1.4,29.51,West,260,9.7,17.3,52,0.00,CLR,,0.00,WeatherDisplay:10.37,2013-02-18 08:15:00,
2013-02-18 03:20:00,12.8,-1.5,29.52,NNW,347,0.4,4.6,52,0.00,CLR,,0.00,WeatherDisplay:10.37,2013-02-18 08:20:00,
2013-02-18 03:25:00,12.8,-1.9,29.52,West,280,7.4,10.4,51,0.00,CLR,,0.00,WeatherDisplay:10.37,2013-02-18 08:25:00,
2013-02-18 03:30:00,12.8,-1.9,29.52,NNW,343,4.2,10.4,51,0.00,CLR,,0.00,WeatherDisplay:10.37,2013-02-18 08:30:00,
2013-02-18 03:35:00,12.6,-2.1,29.52,NNW,340,3.8,4.6,51,0.00,CLR,,0.00,WeatherDisplay:10.37,2013-02-18 08:35:00,
2013-02-18 03:40:00,12.6,-1.7,29.52,NW,309,2.5,8.1,52,0.00,CLR,,0.00,WeatherDisplay:10.37,2013-02-18 08:40:00,
2013-02-18 03:45:00,12.4,-1.9,29.53,NNW,335,3.7,4.6,52,0.00,CLR,,0.00,WeatherDisplay:10.37,2013-02-18 08:45:00,
2013-02-18 03:50:00,12.4,-1.9,29.53,North,357,6.1,8.1,52,0.00,CLR,,0.00,WeatherDisplay:10.37,2013-02-18 08:50:00,
2013-02-18 03:55:00,12.4,-1.9,29.53,NW,304,2.9,6.9,52,0.00,CLR,,0.00,WeatherDisplay:10.37,2013-02-18 08:55:00,
2013-02-18 04:00:00,12.4,-1.9,29.54,NNW,340,2.4,11.5,52,0.00,CLR,,0.00,WeatherDisplay:10.37,2013-02-18 09:00:00,
2013-02-18 04:05:00,12.4,-1.5,29.54,NW,326,2.6,11.5,53,0.00,CLR,,0.00,WeatherDisplay:10.37,2013-02-18 09:05:00,
2013-02-18 04:10:00,12.3,-2.0,29.55,NW,326,4.3,10.4,52,0.00,CLR,,0.00,WeatherDisplay:10.37,2013-02-18 09:10:00,
2013-02-18 04:15:00,12.4,-1.9,29.55,WNW,298,1.6,4.6,52,0.00,CLR,,0.00,WeatherDisplay:10.37,2013-02-18 09:15:00,
2013-02-18 04:20:00,12.4,-1.9,29.55,North,359,5.7,11.5,52,0.00,CLR,,0.00,WeatherDisplay:10.37,2013-02-18 09:20:00,
2013-02-18 04:25:00,12.4,-1.9,29.55,WSW,256,4.5,17.3,52,0.00,CLR,,0.00,WeatherDisplay:10.37,2013-02-18 09:25:00,
2013-02-18 04:30:00,12.4,-1.5,29.56,North,356,5.1,6.9,53,0.00,CLR,,0.00,WeatherDisplay:10.37,2013-02-18 09:30:00,
2013-02-18 04:35:00,12.4,-1.9,29.56,North,356,10.2,17.3,52,0.00,CLR,,0.00,WeatherDisplay:10.37,2013-02-18 09:35:00,
2013-02-18 04:40:00,12.4,-1.9,29.56,NNW,336,7.4,17.3,52,0.00,CLR,,0.00,WeatherDisplay:10.37,2013-02-18 09:40:00,
2013-02-18 04:45:00,12.6,-1.7,29.57,WNW,296,6.6,6.9,52,0.00,CLR,,0.00,WeatherDisplay:10.37,2013-02-18 09:45:00,
2013-02-18 04:50:00,12.6,-1.7,29.57,NW,309,5.3,10.4,52,0.00,CLR,,0.00,WeatherDisplay:10.37,2013-02-18 09:50:00,
2013-02-18 04:55:00,12.4,-1.9,29.58,North,0,6.4,6.4,52,0.00,CLR,,0.00,WeatherDisplay:10.37,2013-02-18 09:55:00,
2013-02-18 05:00:00,12.4,-1.9,29.58,North,0,4.6,13.0,52,0.00,CLR,,0.00,WeatherDisplay:10.37,2013-02-18 10:00:00,
2013-02-18 05:05:00,12.4,-1.9,29.58,WNW,288,6.7,16.1,52,0.00,CLR,,0.00,WeatherDisplay:10.37,2013-02-18 10:05:00,
2013-02-18 05:10:00,12.4,-2.3,29.58,NNW,339,4.8,11.5,51,0.00,CLR,,0.00,WeatherDisplay:10.37,2013-02-18 10:10:00,
2013-02-18 05:15:00,12.3,-2.0,29.58,WSW,257,6.4,10.4,52,0.00,CLR,,0.00,WeatherDisplay:10.37,2013-02-18 10:15:00,
2013-02-18 05:20:00,12.3,-2.0,29.59,WNW,296,6.3,10.4,52,0.00,CLR,,0.00,WeatherDisplay:10.37,2013-02-18 10:20:00,
2013-02-18 05:25:00,12.1,-2.2,29.60,NW,309,5.1,10.4,52,0.00,CLR,,0.00,WeatherDisplay:10.37,2013-02-18 10:25:00,
2013-02-18 05:31:00,12.1,-2.2,29.60,North,357,10.9,13.8,52,0.00,CLR,,0.00,WeatherDisplay:10.37,2013-02-18 10:31:00,
2013-02-18 05:36:00,12.1,-1.8,29.60,WNW,302,8.7,11.5,53,0.00,CLR,,0.00,WeatherDisplay:10.37,2013-02-18 10:36:00,
2013-02-18 05:41:00,12.1,-1.8,29.60,NW,319,3.3,6.9,53,0.00,CLR,,0.00,WeatherDisplay:10.37,2013-02-18 10:41:00,
2013-02-18 05:46:00,11.9,-2.4,29.60,WSW,251,3.0,11.5,52,0.00,CLR,,0.00,WeatherDisplay:10.37,2013-02-18 10:46:00,
2013-02-18 05:51:00,11.9,-2.0,29.61,NNW,342,5.2,11.5,53,0.00,CLR,,0.00,WeatherDisplay:10.37,2013-02-18 10:51:00,
2013-02-18 05:56:00,11.9,-2.0,29.62,North,352,3.1,10.0,53,0.00,CLR,,0.00,WeatherDisplay:10.37,2013-02-18 10:56:00,
2013-02-18 06:01:00,11.9,-2.0,29.62,NNW,346,7.9,17.3,53,0.00,CLR,,0.00,WeatherDisplay:10.37,2013-02-18 11:01:00,
2013-02-18 06:06:00,11.7,-2.2,29.62,NNW,337,5.2,8.1,53,0.00,CLR,,0.00,WeatherDisplay:10.37,2013-02-18 11:06:00,
2013-02-18 06:11:00,11.7,-2.6,29.63,NNW,335,10.5,17.3,52,0.00,CLR,,0.00,WeatherDisplay:10.37,2013-02-18 11:11:00,
2013-02-18 06:16:00,11.7,-2.2,29.63,NW,308,3.4,4.6,53,0.00,CLR,,0.00,WeatherDisplay:10.37,2013-02-18 11:16:00,
2013-02-18 06:21:00,11.6,-1.9,29.63,NW,318,0.6,5.0,54,0.00,CLR,,0.00,WeatherDisplay:10.37,2013-02-18 11:21:00,
2013-02-18 06:26:00,11.6,-2.3,29.64,West,265,6.2,11.5,53,0.00,CLR,,0.00,WeatherDisplay:10.37,2013-02-18 11:26:00,
2013-02-18 06:31:00,11.6,-2.7,29.64,NW,318,2.2,4.6,52,0.00,CLR,,0.00,WeatherDisplay:10.37,2013-02-18 11:31:00,
2013-02-18 06:36:00,11.6,-2.3,29.64,WNW,292,3.4,5.8,53,0.00,CLR,,0.00,WeatherDisplay:10.37,2013-02-18 11:36:00,
2013-02-18 06:41:00,11.4,-2.8,29.64,West,272,2.4,7.0,52,0.00,CLR,,0.00,WeatherDisplay:10.37,2013-02-18 11:41:00,
2013-02-18 06:46:00,11.4,-2.4,29.65,NNW,347,3.1,6.9,53,0.00,CLR,,0.00,WeatherDisplay:10.37,2013-02-18 11:46:00,
2013-02-18 06:51:00,11.4,-2.4,29.65,NW,305,1.2,4.6,53,0.00,CLR,,0.00,WeatherDisplay:10.37,2013-02-18 11:51:00,
2013-02-18 06:56:00,11.6,-2.3,29.65,NNW,332,5.9,10.4,53,0.00,CLR,,0.00,WeatherDisplay:10.37,2013-02-18 11:56:00,
2013-02-18 07:01:00,11.4,-2.0,29.66,NW,320,1.3,5.8,54,0.00,CLR,,0.00,WeatherDisplay:10.37,2013-02-18 12:01:00,
2013-02-18 07:06:00,11.2,-2.2,29.66,WNW,289,4.8,11.5,54,0.00,CLR,,0.00,WeatherDisplay:10.37,2013-02-18 12:06:00,
2013-02-18 07:11:00,11.1,-2.3,29.66,North,357,4.8,8.1,54,0.00,CLR,,0.00,WeatherDisplay:10.37,2013-02-18 12:11:00,
2013-02-18 07:16:00,11.4,-2.4,29.66,NW,315,11.0,19.6,53,0.00,CLR,,0.00,WeatherDisplay:10.37,2013-02-18 12:16:00,
2013-02-18 07:21:00,11.6,-2.3,29.67,WNW,298,4.9,10.4,53,0.00,CLR,,0.00,WeatherDisplay:10.37,2013-02-18 12:21:00,
2013-02-18 07:26:00,11.7,-2.6,29.67,West,275,3.0,6.0,52,0.00,CLR,,0.00,WeatherDisplay:10.37,2013-02-18 12:26:00,
2013-02-18 07:31:00,11.9,-2.4,29.67,WNW,291,5.4,11.0,52,0.00,CLR,,0.00,WeatherDisplay:10.37,2013-02-18 12:31:00,
2013-02-18 07:36:00,12.4,-1.5,29.68,NNW,339,0.4,2.3,53,0.00,CLR,,0.00,WeatherDisplay:10.37,2013-02-18 12:36:00,
2013-02-18 07:41:00,13.3,-1.5,29.68,NNE,14,3.7,6.9,51,0.00,CLR,,0.00,WeatherDisplay:10.37,2013-02-18 12:41:00,
2013-02-18 07:46:00,13.8,-1.0,29.68,NNW,329,0.3,4.6,51,0.00,CLR,,0.00,WeatherDisplay:10.37,2013-02-18 12:46:00,
2013-02-18 07:51:00,14.0,-1.7,29.69,NW,323,6.7,11.5,49,0.00,CLR,,0.00,WeatherDisplay:10.37,2013-02-18 12:51:00,
2013-02-18 07:56:00,14.1,-1.6,29.69,WNW,287,7.8,19.6,49,0.00,CLR,,0.00,WeatherDisplay:10.37,2013-02-18 12:56:00,
2013-02-18 08:01:00,14.1,-1.2,29.70,WNW,296,5.2,10.4,50,0.00,CLR,,0.00,WeatherDisplay:10.37,2013-02-18 13:01:00,
2013-02-18 08:06:00,14.3,-1.8,29.70,NNW,347,5.5,11.5,48,0.00,CLR,,0.00,WeatherDisplay:10.37,2013-02-18 13:06:00,
2013-02-18 08:11:00,14.6,-1.1,29.70,NNW,332,5.6,11.5,49,0.00,CLR,,0.00,WeatherDisplay:10.37,2013-02-18 13:11:00,
2013-02-18 08:16:00,14.8,-1.4,29.70,North,359,7.8,19.6,48,0.00,CLR,,0.00,WeatherDisplay:10.37,2013-02-18 13:16:00,
2013-02-18 08:21:00,15.1,-1.5,29.71,WNW,301,8.8,11.5,47,0.00,CLR,,0.00,WeatherDisplay:10.37,2013-02-18 13:21:00,
2013-02-18 08:26:00,16.2,-1.0,29.72,NW,308,6.9,6.9,46,0.00,CLR,,0.00,WeatherDisplay:10.37,2013-02-18 13:26:00,
2013-02-18 08:31:00,17.2,-1.0,29.72,NW,315,7.2,11.5,44,0.00,CLR,,0.00,WeatherDisplay:10.37,2013-02-18 13:31:00,
2013-02-18 08:36:00,17.5,-1.2,29.72,North,359,7.9,11.5,43,0.00,CLR,,0.00,WeatherDisplay:10.37,2013-02-18 13:36:00,
2013-02-18 08:41:00,18.0,-0.8,29.71,North,359,8.2,10.4,43,0.00,CLR,,0.00,WeatherDisplay:10.37,2013-02-18 13:41:00,
2013-02-18 08:46:00,18.3,-0.5,29.72,NW,315,8.8,12.7,43,0.00,CLR,,0.00,WeatherDisplay:10.37,2013-02-18 13:46:00,
2013-02-18 08:51:00,18.9,-0.5,29.72,North,359,5.9,11.5,42,0.00,CLR,,0.00,WeatherDisplay:10.37,2013-02-18 13:51:00,
2013-02-18 08:56:00,19.7,0.3,29.72,North,359,2.6,5.0,42,0.00,CLR,,0.00,WeatherDisplay:10.37,2013-02-18 13:56:00,
2013-02-18 09:01:00,20.2,0.7,29.72,NNW,335,5.2,12.7,42,0.00,CLR,,0.00,WeatherDisplay:10.37,2013-02-18 14:01:00,
2013-02-18 09:06:00,20.2,-0.8,29.72,North,354,7.1,10.4,39,0.00,CLR,,0.00,WeatherDisplay:10.37,2013-02-18 14:06:00,
2013-02-18 09:12:00,20.6,0.1,29.72,North,354,15.3,25.3,40,0.00,CLR,,0.00,WeatherDisplay:10.37,2013-02-18 14:12:00,
2013-02-18 09:17:00,21.0,0.4,29.72,NNW,342,7.5,11.5,40,0.00,CLR,,0.00,WeatherDisplay:10.37,2013-02-18 14:17:00,
2013-02-18 09:22:00,21.3,-0.4,29.72,North,359,9.2,17.3,38,0.00,CLR,,0.00,WeatherDisplay:10.37,2013-02-18 14:22:00,
2013-02-18 09:27:00,21.1,0.0,29.72,WNW,289,11.7,17.3,39,0.00,CLR,,0.00,WeatherDisplay:10.37,2013-02-18 14:27:00,
2013-02-18 09:32:00,21.1,0.5,29.73,NW,325,6.5,24.2,40,0.00,CLR,,0.00,WeatherDisplay:10.37,2013-02-18 14:32:00,
2013-02-18 09:37:00,21.3,0.1,29.73,NNE,17,7.4,19.6,39,0.00,CLR,,0.00,WeatherDisplay:10.37,2013-02-18 14:37:00,
2013-02-18 09:42:00,21.3,-1.0,29.73,NNW,330,14.5,19.6,37,0.00,CLR,,0.00,WeatherDisplay:10.37,2013-02-18 14:42:00,
2013-02-18 09:47:00,21.9,-1.0,29.72,NNW,340,10.0,12.7,36,0.00,CLR,,0.00,WeatherDisplay:10.37,2013-02-18 14:47:00,
2013-02-18 09:52:00,22.2,-1.3,29.72,North,0,9.6,17.3,35,0.00,CLR,,0.00,WeatherDisplay:10.37,2013-02-18 14:52:00,
2013-02-18 09:57:00,22.9,0.5,29.73,North,359,6.6,17.0,37,0.00,CLR,,0.00,WeatherDisplay:10.37,2013-02-18 14:57:00,
2013-02-18 10:02:00,23.0,-1.9,29.73,North,359,8.9,11.5,33,0.00,CLR,,0.00,WeatherDisplay:10.37,2013-02-18 15:02:00,
2013-02-18 10:07:00,23.0,-1.2,29.73,NW,326,11.8,17.3,34,0.00,CLR,,0.00,WeatherDisplay:10.37,2013-02-18 15:07:00,
2013-02-18 10:12:00,23.9,0.2,29.72,West,275,5.7,9.2,35,0.00,CLR,,0.00,WeatherDisplay:10.37,2013-02-18 15:12:00,
2013-02-18 10:17:00,24.1,-0.3,29.72,NNW,343,7.6,15.0,34,0.00,CLR,,0.00,WeatherDisplay:10.37,2013-02-18 15:17:00,
2013-02-18 10:22:00,24.1,-0.3,29.72,North,359,8.7,11.5,34,0.00,CLR,,0.00,WeatherDisplay:10.37,2013-02-18 15:22:00,
2013-02-18 10:27:00,23.9,-1.1,29.73,North,8,12.8,24.2,33,0.00,CLR,,0.00,WeatherDisplay:10.37,2013-02-18 15:27:00,
2013-02-18 10:32:00,24.4,-0.6,29.73,West,271,7.2,13.8,33,0.00,CLR,,0.00,WeatherDisplay:10.37,2013-02-18 15:32:00,
2013-02-18 10:37:00,24.7,1.5,29.73,North,350,7.4,10.4,36,0.00,CLR,,0.00,WeatherDisplay:10.37,2013-02-18 15:37:00,
2013-02-18 10:42:00,24.7,1.5,29.73,NW,323,5.1,10.4,36,0.00,CLR,,0.00,WeatherDisplay:10.37,2013-02-18 15:42:00,
2013-02-18 10:47:00,24.8,-0.3,29.73,NNW,328,9.8,13.8,33,0.00,CLR,,0.00,WeatherDisplay:10.37,2013-02-18 15:47:00,
2013-02-18 10:52:00,24.8,-0.3,29.73,NW,326,12.1,12.7,33,0.00,CLR,,0.00,WeatherDisplay:10.37,2013-02-18 15:52:00,
2013-02-18 10:57:00,25.1,1.2,29.73,NNW,328,7.8,7.8,35,0.00,CLR,,0.00,WeatherDisplay:10.37,2013-02-18 15:57:00,
2013-02-18 11:02:00,25.6,1.7,29.73,NNW,337,2.0,8.1,35,0.00,CLR,,0.00,WeatherDisplay:10.37,2013-02-18 16:02:00,
2013-02-18 11:07:00,25.1,0.6,29.73,NNW,336,3.7,10.4,34,0.00,CLR,,0.00,WeatherDisplay:10.37,2013-02-18 16:07:00,
2013-02-18 11:12:00,25.4,0.2,29.73,NW,322,3.8,10.4,33,0.00,CLR,,0.00,WeatherDisplay:10.37,2013-02-18 16:12:00,
2013-02-18 11:18:00,25.1,0.0,29.73,North,353,5.8,16.1,33,0.00,CLR,,0.00,WeatherDisplay:10.37,2013-02-18 16:18:00,
2013-02-18 11:23:00,25.0,0.5,29.73,NW,316,9.0,16.1,34,0.00,CLR,,0.00,WeatherDisplay:10.37,2013-02-18 16:23:00,
2013-02-18 11:28:00,25.0,0.5,29.72,North,359,6.4,17.3,34,0.00,CLR,,0.00,WeatherDisplay:10.37,2013-02-18 16:28:00,
2013-02-18 11:33:00,25.0,0.5,29.73,North,357,4.9,10.4,34,0.00,CLR,,0.00,WeatherDisplay:10.37,2013-02-18 16:33:00,
2013-02-18 11:38:00,25.1,-1.3,29.73,WNW,298,10.1,13.8,31,0.00,CLR,,0.00,WeatherDisplay:10.37,2013-02-18 16:38:00,
2013-02-18 11:43:00,25.1,-1.3,29.73,North,0,14.3,26.5,31,0.00,CLR,,0.00,WeatherDisplay:10.37,2013-02-18 16:43:00,
2013-02-18 11:48:00,25.3,-1.2,29.73,NNW,339,8.0,13.8,31,0.00,CLR,,0.00,WeatherDisplay:10.37,2013-02-18 16:48:00,
2013-02-18 11:53:00,25.4,-1.8,29.73,NNW,344,10.9,19.6,30,0.00,CLR,,0.00,WeatherDisplay:10.37,2013-02-18 16:53:00,
2013-02-18 11:58:00,25.6,0.4,29.73,North,0,8.0,13.8,33,0.00,CLR,,0.00,WeatherDisplay:10.37,2013-02-18 16:58:00,
2013-02-18 12:03:00,25.8,-0.7,29.73,NNE,28,8.6,17.3,31,0.00,CLR,,0.00,WeatherDisplay:10.37,2013-02-18 17:03:00,
2013-02-18 12:08:00,25.8,-1.4,29.73,NNW,339,7.5,13.8,30,0.00,CLR,,0.00,WeatherDisplay:10.37,2013-02-18 17:08:00,
2013-02-18 12:13:00,25.8,-0.1,29.73,NW,315,4.5,10.0,32,0.00,CLR,,0.00,WeatherDisplay:10.37,2013-02-18 17:13:00,
2013-02-18 12:18:00,26.0,0.8,29.74,North,359,8.6,19.6,33,0.00,CLR,,0.00,WeatherDisplay:10.37,2013-02-18 17:18:00,
2013-02-18 12:23:00,26.1,-0.5,29.74,North,359,10.0,13.8,31,0.00,CLR,,0.00,WeatherDisplay:10.37,2013-02-18 17:23:00,
2013-02-18 12:28:00,26.3,-1.0,29.74,NW,320,8.5,12.7,30,0.00,CLR,,0.00,WeatherDisplay:10.37,2013-02-18 17:28:00,
2013-02-18 12:33:00,26.4,-0.2,29.73,WNW,298,8.5,16.1,31,0.00,CLR,,0.00,WeatherDisplay:10.37,2013-02-18 17:33:00,
2013-02-18 12:38:00,26.4,0.5,29.73,NW,315,10.8,24.2,32,0.00,CLR,,0.00,WeatherDisplay:10.37,2013-02-18 17:38:00,
2013-02-18 12:43:00,26.3,-0.3,29.74,North,353,11.0,19.6,31,0.00,CLR,,0.00,WeatherDisplay:10.37,2013-02-18 17:43:00,
2013-02-18 12:48:00,26.4,-0.2,29.74,North,354,8.0,13.8,31,0.00,CLR,,0.00,WeatherDisplay:10.37,2013-02-18 17:48:00,
2013-02-18 12:53:00,26.4,-2.4,29.74,WNW,291,14.4,24.2,28,0.00,CLR,,0.00,WeatherDisplay:10.37,2013-02-18 17:53:00,
2013-02-18 12:58:00,26.6,0.0,29.74,ENE,58,10.3,13.8,31,0.00,CLR,,0.00,WeatherDisplay:10.37,2013-02-18 17:58:00,
2013-02-18 13:03:00,26.9,0.2,29.74,West,271,5.8,17.3,31,0.00,CLR,,0.00,WeatherDisplay:10.37,2013-02-18 18:03:00,
2013-02-18 13:08:00,27.0,-0.4,29.74,NW,308,3.1,10.4,30,0.00,CLR,,0.00,WeatherDisplay:10.37,2013-02-18 18:08:00,
2013-02-18 13:13:00,27.2,-0.2,29.74,NW,316,3.5,10.4,30,0.00,CLR,,0.00,WeatherDisplay:10.37,2013-02-18 18:13:00,
2013-02-18 13:18:00,27.2,0.5,29.74,NW,312,7.2,13.8,31,0.00,CLR,,0.00,WeatherDisplay:10.37,2013-02-18 18:18:00,
2013-02-18 13:23:00,27.2,0.5,29.74,NNW,335,15.9,20.7,31,0.00,CLR,,0.00,WeatherDisplay:10.37,2013-02-18 18:23:00,
2013-02-18 13:28:00,27.0,-1.8,29.74,WSW,253,9.5,11.5,28,0.00,CLR,,0.00,WeatherDisplay:10.37,2013-02-18 18:28:00,
2013-02-18 13:33:00,27.0,0.3,29.75,North,357,7.3,11.5,31,0.00,CLR,,0.00,WeatherDisplay:10.37,2013-02-18 18:33:00,
2013-02-18 13:38:00,27.0,-1.1,29.75,North,356,10.3,19.6,29,0.00,CLR,,0.00,WeatherDisplay:10.37,2013-02-18 18:38:00,
2013-02-18 13:43:00,26.9,-0.5,29.75,North,359,11.5,19.6,30,0.00,CLR,,0.00,WeatherDisplay:10.37,2013-02-18 18:43:00,
2013-02-18 13:48:00,26.7,-0.6,29.75,NNW,347,5.4,6.9,30,0.00,CLR,,0.00,WeatherDisplay:10.37,2013-02-18 18:48:00,
2013-02-18 13:53:00,26.7,0.1,29.75,WSW,257,2.3,5.8,31,0.00,CLR,,0.00,WeatherDisplay:10.37,2013-02-18 18:53:00,
2013-02-18 13:58:00,26.9,0.2,29.75,West,271,3.8,8.1,31,0.00,CLR,,0.00,WeatherDisplay:10.37,2013-02-18 18:58:00,
2013-02-18 14:03:00,27.0,1.0,29.76,NW,311,3.8,11.5,32,0.00,CLR,,0.00,WeatherDisplay:10.37,2013-02-18 19:03:00,
2013-02-18 14:08:00,27.2,-0.2,29.76,North,359,3.3,6.9,30,0.00,CLR,,0.00,WeatherDisplay:10.37,2013-02-18 19:08:00,
2013-02-18 14:13:00,27.3,-0.1,29.76,WSW,248,5.8,6.9,30,0.00,CLR,,0.00,WeatherDisplay:10.37,2013-02-18 19:13:00,
2013-02-18 14:18:00,27.2,-1.7,29.76,NNW,344,2.4,10.4,28,0.00,CLR,,0.00,WeatherDisplay:10.37,2013-02-18 19:18:00,
2013-02-18 14:23:00,27.2,0.5,29.76,NW,319,5.8,13.8,31,0.00,CLR,,0.00,WeatherDisplay:10.37,2013-02-18 19:23:00,
2013-02-18 14:28:00,27.0,-0.4,29.76,West,274,5.1,11.0,30,0.00,CLR,,0.00,WeatherDisplay:10.37,2013-02-18 19:28:00,
2013-02-18 14:33:00,27.0,-1.8,29.76,NNW,346,6.5,12.7,28,0.00,CLR,,0.00,WeatherDisplay:10.37,2013-02-18 19:33:00,
2013-02-18 14:38:00,26.9,-1.2,29.76,NW,319,4.1,6.9,29,0.00,CLR,,0.00,WeatherDisplay:10.37,2013-02-18 19:38:00,
2013-02-18 14:43:00,26.9,-1.2,29.76,West,267,4.2,7.0,29,0.00,CLR,,0.00,WeatherDisplay:10.37,2013-02-18 19:43:00,
2013-02-18 14:48:00,26.9,-1.9,29.76,NNE,25,9.3,17.3,28,0.00,CLR,,0.00,WeatherDisplay:10.37,2013-02-18 19:48:00,
2013-02-18 14:53:00,27.0,-2.6,29.76,NNW,342,8.3,16.0,27,0.00,CLR,,0.00,WeatherDisplay:10.37,2013-02-18 19:53:00,
2013-02-18 14:58:00,27.2,-2.4,29.77,NNW,337,7.6,12.7,27,0.00,CLR,,0.00,WeatherDisplay:10.37,2013-02-18 19:58:00,
2013-02-18 15:03:00,27.2,-2.4,29.77,NNW,339,1.6,6.9,27,0.00,CLR,,0.00,WeatherDisplay:10.37,2013-02-18 20:03:00,
2013-02-18 15:08:00,27.3,-2.3,29.77,WNW,284,1.0,6.9,27,0.00,CLR,,0.00,WeatherDisplay:10.37,2013-02-18 20:08:00,
2013-02-18 15:13:00,27.5,-2.2,29.77,NNW,346,0.7,4.6,27,0.00,CLR,,0.00,WeatherDisplay:10.37,2013-02-18 20:13:00,
2013-02-18 15:18:00,27.5,-1.4,29.77,North,0,5.2,10.4,28,0.00,CLR,,0.00,WeatherDisplay:10.37,2013-02-18 20:18:00,
2013-02-18 15:23:00,27.5,-2.2,29.77,North,357,2.3,5.8,27,0.00,CLR,,0.00,WeatherDisplay:10.37,2013-02-18 20:23:00,
2013-02-18 15:28:00,27.5,-2.2,29.77,West,275,0.7,2.3,27,0.00,CLR,,0.00,WeatherDisplay:10.37,2013-02-18 20:28:00,
2013-02-18 15:33:00,27.5,-1.4,29.77,NW,316,2.3,6.9,28,0.00,CLR,,0.00,WeatherDisplay:10.37,2013-02-18 20:33:00,
2013-02-18 15:38:00,27.5,-2.2,29.78,North,1,2.7,11.5,27,0.00,CLR,,0.00,WeatherDisplay:10.37,2013-02-18 20:38:00,
2013-02-18 15:43:00,27.5,-3.0,29.78,North,359,2.9,6.9,26,0.00,CLR,,0.00,WeatherDisplay:10.37,2013-02-18 20:43:00,
2013-02-18 15:48:00,27.6,-2.1,29.78,NW,323,5.6,10.4,27,0.00,CLR,,0.00,WeatherDisplay:10.37,2013-02-18 20:48:00,
2013-02-18 15:53:00,27.6,-2.1,29.78,NW,311,6.5,11.5,27,0.00,CLR,,0.00,WeatherDisplay:10.37,2013-02-18 20:53:00,
2013-02-18 15:58:00,27.5,-1.4,29.78,North,3,7.4,13.8,28,0.00,CLR,,0.00,WeatherDisplay:10.37,2013-02-18 20:58:00,
2013-02-18 16:03:00,27.5,-2.2,29.78,West,281,7.9,12.7,27,0.00,CLR,,0.00,WeatherDisplay:10.37,2013-02-18 21:03:00,
2013-02-18 16:08:00,27.5,-2.2,29.78,NNW,337,6.6,13.8,27,0.00,CLR,,0.00,WeatherDisplay:10.37,2013-02-18 21:08:00,
2013-02-18 16:13:00,27.5,-3.0,29.79,West,281,4.8,11.5,26,0.00,CLR,,0.00,WeatherDisplay:10.37,2013-02-18 21:13:00,
2013-02-18 16:18:00,27.5,-1.4,29.79,North,4,4.0,5.8,28,0.00,CLR,,0.00,WeatherDisplay:10.37,2013-02-18 21:18:00,
2013-02-18 16:23:00,27.5,-3.0,29.79,SW,229,8.1,13.8,26,0.00,CLR,,0.00,WeatherDisplay:10.37,2013-02-18 21:23:00,
2013-02-18 16:28:00,27.5,-3.0,29.79,NNW,340,6.5,12.0,26,0.00,CLR,,0.00,WeatherDisplay:10.37,2013-02-18 21:28:00,
2013-02-18 16:33:00,27.3,-1.6,29.79,WNW,292,3.0,7.0,28,0.00,CLR,,0.00,WeatherDisplay:10.37,2013-02-18 21:33:00,
2013-02-18 16:38:00,27.2,-2.4,29.80,NW,313,3.0,12.7,27,0.00,CLR,,0.00,WeatherDisplay:10.37,2013-02-18 21:38:00,
2013-02-18 16:43:00,27.2,-2.4,29.80,NNW,339,0.1,3.5,27,0.00,CLR,,0.00,WeatherDisplay:10.37,2013-02-18 21:43:00,
2013-02-18 16:48:00,27.0,-3.4,29.80,NW,309,3.0,5.8,26,0.00,CLR,,0.00,WeatherDisplay:10.37,2013-02-18 21:48:00,
2013-02-18 16:53:00,27.0,-2.6,29.80,WNW,294,4.5,10.4,27,0.00,CLR,,0.00,WeatherDisplay:10.37,2013-02-18 21:53:00,
2013-02-18 16:58:00,26.9,-2.7,29.80,West,274,2.2,12.7,27,0.00,CLR,,0.00,WeatherDisplay:10.37,2013-02-18 21:58:00,
2013-02-18 17:03:00,26.7,-2.1,29.80,North,349,2.9,4.6,28,0.00,CLR,,0.00,WeatherDisplay:10.37,2013-02-18 22:03:00,
2013-02-18 17:08:00,26.6,-3.0,29.80,NNW,336,1.1,8.1,27,0.00,CLR,,0.00,WeatherDisplay:10.37,2013-02-18 22:08:00,
2013-02-18 17:13:00,26.3,-1.7,29.80,NW,326,2.3,6.9,29,0.00,CLR,,0.00,WeatherDisplay:10.37,2013-02-18 22:13:00,
2013-02-18 17:18:00,26.0,-3.5,29.80,WNW,291,3.0,6.9,27,0.00,CLR,,0.00,WeatherDisplay:10.37,2013-02-18 22:18:00,
2013-02-18 17:23:00,26.0,-2.7,29.80,WNW,292,2.6,10.4,28,0.00,CLR,,0.00,WeatherDisplay:10.37,2013-02-18 22:23:00,
2013-02-18 17:28:00,25.8,-2.1,29.80,WNW,298,1.1,3.5,29,0.00,CLR,,0.00,WeatherDisplay:10.37,2013-02-18 22:28:00,
2013-02-18 17:33:00,25.6,-1.6,29.80,NW,318,0.0,5.8,30,0.00,CLR,,0.00,WeatherDisplay:10.37,2013-02-18 22:33:00,
2013-02-18 17:38:00,25.4,-0.4,29.81,WNW,288,0.2,2.0,32,0.00,CLR,,0.00,WeatherDisplay:10.37,2013-02-18 22:38:00,
2013-02-18 17:43:00,25.3,-1.2,29.81,WNW,288,0.3,2.3,31,0.00,CLR,,0.00,WeatherDisplay:10.37,2013-02-18 22:43:00,
2013-02-18 17:48:00,25.1,-1.3,29.81,NNW,329,0.0,4.6,31,0.00,CLR,,0.00,WeatherDisplay:10.37,2013-02-18 22:48:00,
2013-02-18 17:53:00,25.0,-3.6,29.81,NW,323,0.0,6.9,28,0.00,CLR,,0.00,WeatherDisplay:10.37,2013-02-18 22:53:00,
2013-02-18 17:58:00,25.0,-0.8,29.82,WNW,289,0.0,0.0,32,0.00,CLR,,0.00,WeatherDisplay:10.37,2013-02-18 22:58:00,
2013-02-18 18:03:00,25.0,-1.4,29.82,West,278,0.0,0.0,31,0.00,CLR,,0.00,WeatherDisplay:10.37,2013-02-18 23:03:00,
2013-02-18 18:08:00,24.8,-2.3,29.82,West,274,0.0,0.0,30,0.00,CLR,,0.00,WeatherDisplay:10.37,2013-02-18 23:08:00,
2013-02-18 18:13:00,24.8,-1.6,29.83,West,270,0.0,0.0,31,0.00,CLR,,0.00,WeatherDisplay:10.37,2013-02-18 23:13:00,
2013-02-18 18:18:00,24.7,-1.7,29.83,WSW,240,0.0,2.3,31,0.00,CLR,,0.00,WeatherDisplay:10.37,2013-02-18 23:18:00,
2013-02-18 18:23:00,24.5,-0.5,29.83,West,275,0.0,2.3,33,0.00,CLR,,0.00,WeatherDisplay:10.37,2013-02-18 23:23:00,
2013-02-18 18:28:00,24.2,0.4,29.83,SW,222,0.0,1.0,35,0.00,CLR,,0.00,WeatherDisplay:10.37,2013-02-18 23:28:00,
2013-02-18 18:33:00,23.9,0.8,29.83,SW,226,2.3,4.6,36,0.00,CLR,,0.00,WeatherDisplay:10.37,2013-02-18 23:33:00,
2013-02-18 18:38:00,23.6,0.5,29.83,SW,227,0.2,4.6,36,0.00,CLR,,0.00,WeatherDisplay:10.37,2013-02-18 23:38:00,
2013-02-18 18:43:00,23.5,0.4,29.83,WSW,244,1.2,6.0,36,0.00,CLR,,0.00,WeatherDisplay:10.37,2013-02-18 23:43:00,
2013-02-18 18:48:00,23.5,1.0,29.83,SSW,193,0.0,0.0,37,0.00,CLR,,0.00,WeatherDisplay:10.37,2013-02-18 23:48:00,
2013-02-18 18:53:00,23.3,0.2,29.84,West,281,0.5,8.1,36,0.00,CLR,,0.00,WeatherDisplay:10.37,2013-02-18 23:53:00,
2013-02-18 18:58:00,23.3,0.8,29.84,WSW,258,0.9,4.6,37,0.00,CLR,,0.00,WeatherDisplay:10.37,2013-02-18 23:58:00,
2013-02-18 19:03:00,23.2,0.1,29.84,SW,234,0.0,0.0,36,0.00,CLR,,0.00,WeatherDisplay:10.37,2013-02-19 00:03:00,
2013-02-18 19:08:00,23.2,0.7,29.84,WSW,254,2.6,4.6,37,0.00,CLR,,0.00,WeatherDisplay:10.37,2013-02-19 00:08:00,
2013-02-18 19:13:00,23.2,0.1,29.85,SSW,192,0.1,0.0,36,0.00,CLR,,0.00,WeatherDisplay:10.37,2013-02-19 00:13:00,
2013-02-18 19:18:00,23.2,1.3,29.85,West,264,0.0,0.0,38,0.00,CLR,,0.00,WeatherDisplay:10.37,2013-02-19 00:18:00,
2013-02-18 19:23:00,23.2,1.3,29.85,WNW,287,0.1,0.0,38,0.00,CLR,,0.00,WeatherDisplay:10.37,2013-02-19 00:23:00,
2013-02-18 19:28:00,23.0,0.6,29.85,SSW,210,0.0,0.0,37,0.00,CLR,,0.00,WeatherDisplay:10.37,2013-02-19 00:28:00,
2013-02-18 19:33:00,23.0,0.6,29.85,WSW,246,2.8,7.0,37,0.00,CLR,,0.00,WeatherDisplay:10.37,2013-02-19 00:33:00,
2013-02-18 19:38:00,22.9,0.5,29.85,SSW,199,0.1,2.3,37,0.00,CLR,,0.00,WeatherDisplay:10.37,2013-02-19 00:38:00,
2013-02-18 19:43:00,22.9,1.6,29.85,SW,234,0.0,0.0,39,0.00,CLR,,0.00,WeatherDisplay:10.37,2013-02-19 00:43:00,
2013-02-18 19:48:00,22.7,0.9,29.85,SW,234,0.7,0.0,38,0.00,CLR,,0.00,WeatherDisplay:10.37,2013-02-19 00:48:00,
2013-02-18 19:53:00,22.5,0.7,29.85,WSW,248,0.3,5.0,38,0.00,CLR,,0.00,WeatherDisplay:10.37,2013-02-19 00:53:00,
2013-02-18 19:58:00,22.4,0.0,29.86,SW,226,1.3,3.0,37,0.00,CLR,,0.00,WeatherDisplay:10.37,2013-02-19 00:58:00,
2013-02-18 20:03:00,22.4,0.0,29.85,SSW,208,1.3,5.8,37,0.00,CLR,,0.00,WeatherDisplay:10.37,2013-02-19 01:03:00,
2013-02-18 20:08:00,22.4,0.6,29.85,WSW,248,0.1,2.3,38,0.00,CLR,,0.00,WeatherDisplay:10.37,2013-02-19 01:08:00,
2013-02-18 20:13:00,22.2,0.4,29.85,West,277,0.0,0.0,38,0.00,CLR,,0.00,WeatherDisplay:10.37,2013-02-19 01:13:00,
2013-02-18 20:18:00,22.2,1.0,29.86,South,186,0.9,1.0,39,0.00,CLR,,0.00,WeatherDisplay:10.37,2013-02-19 01:18:00,
2013-02-18 20:23:00,22.1,0.3,29.86,West,280,0.1,0.0,38,0.00,CLR,,0.00,WeatherDisplay:10.37,2013-02-19 01:23:00,
2013-02-18 20:28:00,22.1,0.9,29.86,SSW,212,0.4,2.3,39,0.00,CLR,,0.00,WeatherDisplay:10.37,2013-02-19 01:28:00,
2013-02-18 20:33:00,21.9,1.2,29.86,SW,233,0.2,1.1,40,0.00,CLR,,0.00,WeatherDisplay:10.37,2013-02-19 01:33:00,
2013-02-18 20:38:00,21.8,0.6,29.86,SW,230,0.3,4.6,39,0.00,CLR,,0.00,WeatherDisplay:10.37,2013-02-19 01:38:00,
2013-02-18 20:43:00,21.8,1.1,29.87,WSW,256,0.2,1.1,40,0.00,CLR,,0.00,WeatherDisplay:10.37,2013-02-19 01:43:00,
2013-02-18 20:48:00,21.6,0.4,29.87,WSW,240,0.1,3.5,39,0.00,CLR,,0.00,WeatherDisplay:10.37,2013-02-19 01:48:00,
2013-02-18 20:53:00,21.6,0.4,29.87,West,260,0.3,0.0,39,0.00,CLR,,0.00,WeatherDisplay:10.37,2013-02-19 01:53:00,
2013-02-18 20:58:00,21.6,0.4,29.87,WSW,244,1.7,4.6,39,0.00,CLR,,0.00,WeatherDisplay:10.37,2013-02-19 01:58:00,
2013-02-18 21:03:00,21.6,1.0,29.87,WSW,239,0.2,5.0,40,0.00,CLR,,0.00,WeatherDisplay:10.37,2013-02-19 02:03:00,
2013-02-18 21:08:00,21.4,0.8,29.87,SW,227,0.6,5.8,40,0.00,CLR,,0.00,WeatherDisplay:10.37,2013-02-19 02:08:00,
2013-02-18 21:13:00,21.4,0.8,29.87,SSW,203,0.7,6.9,40,0.00,CLR,,0.00,WeatherDisplay:10.37,2013-02-19 02:13:00,
2013-02-18 21:18:00,21.4,1.3,29.87,WSW,247,0.0,5.8,41,0.00,CLR,,0.00,WeatherDisplay:10.37,2013-02-19 02:18:00,
2013-02-18 21:23:00,21.4,1.3,29.87,West,275,0.6,5.8,41,0.00,CLR,,0.00,WeatherDisplay:10.37,2013-02-19 02:23:00,
2013-02-18 21:28:00,21.3,1.2,29.87,WSW,243,0.4,6.9,41,0.00,CLR,,0.00,WeatherDisplay:10.37,2013-02-19 02:28:00,
2013-02-18 21:33:00,21.1,1.0,29.87,SSW,203,0.3,4.6,41,0.00,CLR,,0.00,WeatherDisplay:10.37,2013-02-19 02:33:00,
2013-02-18 21:38:00,21.0,0.9,29.87,WSW,239,0.0,0.0,41,0.00,CLR,,0.00,WeatherDisplay:10.37,2013-02-19 02:38:00,
2013-02-18 21:43:00,21.0,0.9,29.87,SW,220,0.0,0.0,41,0.00,CLR,,0.00,WeatherDisplay:10.37,2013-02-19 02:43:00,
2013-02-18 21:49:00,20.8,1.3,29.87,SW,223,0.0,0.0,42,0.00,CLR,,0.00,WeatherDisplay:10.37,2013-02-19 02:49:00,
2013-02-18 21:54:00,20.8,0.8,29.87,SW,224,0.0,0.0,41,0.00,CLR,,0.00,WeatherDisplay:10.37,2013-02-19 02:54:00,
2013-02-18 21:59:00,20.8,1.3,29.87,SW,217,0.0,0.0,42,0.00,CLR,,0.00,WeatherDisplay:10.37,2013-02-19 02:59:00,
2013-02-18 22:04:00,20.6,1.1,29.87,WSW,239,0.8,0.0,42,0.00,CLR,,0.00,WeatherDisplay:10.37,2013-02-19 03:04:00,
2013-02-18 22:09:00,20.6,0.6,29.88,SSW,210,0.0,0.0,41,0.00,CLR,,0.00,WeatherDisplay:10.37,2013-02-19 03:09:00,
2013-02-18 22:14:00,20.6,1.1,29.88,WSW,244,0.0,0.0,42,0.00,CLR,,0.00,WeatherDisplay:10.37,2013-02-19 03:14:00,
2013-02-18 22:19:00,20.6,1.6,29.88,WNW,289,0.2,2.3,43,0.00,CLR,,0.00,WeatherDisplay:10.37,2013-02-19 03:19:00,
2013-02-18 22:24:00,20.5,1.0,29.89,West,264,0.1,2.0,42,0.00,CLR,,0.00,WeatherDisplay:10.37,2013-02-19 03:24:00,
2013-02-18 22:29:00,20.5,1.5,29.89,WSW,258,0.2,2.3,43,0.00,CLR,,0.00,WeatherDisplay:10.37,2013-02-19 03:29:00,
2013-02-18 22:34:00,20.5,1.5,29.89,SW,229,0.0,0.0,43,0.00,CLR,,0.00,WeatherDisplay:10.37,2013-02-19 03:34:00,
2013-02-18 22:39:00,20.3,1.3,29.89,SW,234,0.3,1.1,43,0.00,CLR,,0.00,WeatherDisplay:10.37,2013-02-19 03:39:00,
2013-02-18 22:44:00,20.3,0.8,29.89,SW,230,0.1,0.0,42,0.00,CLR,,0.00,WeatherDisplay:10.37,2013-02-19 03:44:00,
2013-02-18 22:49:00,20.3,1.3,29.89,WSW,247,0.0,0.0,43,0.00,CLR,,0.00,WeatherDisplay:10.37,2013-02-19 03:49:00,
2013-02-18 22:54:00,20.2,1.2,29.89,SW,230,0.0,0.0,43,0.00,CLR,,0.00,WeatherDisplay:10.37,2013-02-19 03:54:00,
2013-02-18 22:59:00,20.2,1.2,29.89,WSW,239,1.4,4.6,43,0.00,CLR,,0.00,WeatherDisplay:10.37,2013-02-19 03:59:00,
2013-02-18 23:04:00,20.2,1.7,29.89,WSW,244,1.8,4.6,44,0.00,CLR,,0.00,WeatherDisplay:10.37,2013-02-19 04:04:00,
2013-02-18 23:09:00,20.0,2.0,29.89,WSW,258,0.0,0.0,45,0.00,CLR,,0.00,WeatherDisplay:10.37,2013-02-19 04:09:00,
2013-02-18 23:14:00,20.0,2.0,29.89,WSW,244,0.0,0.0,45,0.00,CLR,,0.00,WeatherDisplay:10.37,2013-02-19 04:14:00,
2013-02-18 23:19:00,20.0,1.5,29.89,SW,236,0.8,2.3,44,0.00,CLR,,0.00,WeatherDisplay:10.37,2013-02-19 04:19:00,
2013-02-18 23:24:00,20.0,2.0,29.90,SSW,213,2.7,8.1,45,0.00,CLR,,0.00,WeatherDisplay:10.37,2013-02-19 04:24:00,
2013-02-18 23:29:00,20.0,2.0,29.89,SW,233,0.0,0.0,45,0.00,CLR,,0.00,WeatherDisplay:10.37,2013-02-19 04:29:00,
2013-02-18 23:34:00,20.0,2.5,29.89,SSW,212,0.0,0.0,46,0.00,CLR,,0.00,WeatherDisplay:10.37,2013-02-19 04:34:00,
2013-02-18 23:39:00,20.0,2.0,29.89,WSW,244,0.2,2.3,45,0.00,CLR,,0.00,WeatherDisplay:10.37,2013-02-19 04:39:00,
2013-02-18 23:44:00,20.0,2.0,29.89,SSW,196,0.0,0.0,45,0.00,CLR,,0.00,WeatherDisplay:10.37,2013-02-19 04:44:00,
2013-02-18 23:49:00,19.9,2.4,29.89,SW,226,0.3,2.3,46,0.00,CLR,,0.00,WeatherDisplay:10.37,2013-02-19 04:49:00,
2013-02-18 23:54:00,19.9,1.9,29.89,SW,236,0.2,3.5,45,0.00,CLR,,0.00,WeatherDisplay:10.37,2013-02-19 04:54:00,
2013-02-18 23:59:00,19.9,1.9,29.90,SW,220,0.1,1.1,45,0.00,CLR,,0.00,WeatherDisplay:10.37,2013-02-19 04:59:00,